Oletha, Texas
Current Conditions -  °F | °C
As of 8:15 AM on Sunday 25 Jan 2015 (Local Time) from KLXY Reporting Station
Clear Clear  
Wind Chill: 37°   Ceiling: Unl
Heat Index: 44°   Visibility: 10mi
Dew Point: 36°   Wind: 13mph
Humidity: 74%   Direction: 290°WNW
Pressure: 29.99"   Gusts: NA
Location:  31.4027°N, 96.4988°W
Report Text: KLXY 251415Z AUTO 29011KT 10SM CLR 07/02 A2999 RMK AO2 T00650022
Loading
Personal Weather Stations






























Interactive Weather Map New forecast layout! Learn more

10-Day Weather Forecast

Advertisements
Track Severe Weather on mobile